Hlavní strana
METAR-TAF:

METAR-TAF

Letiště :

Jyväskylä, Finsko

zeměpisná šířka: 62-24N, zeměpisná délka: 025-41E, výška: 141 m

Aktuální stav počasí

Zpráva byla vytvořena před 21 minutami, v 11:50 UTC
Jihozápadní vítr 9 kt, proměnlivý mezi jižním a západním
Teplota 18°C
Vlhkost vzduchu 34%
Tlak 1025 hPa
Viditelnost 10 km a více
Žádná oblačnost pod 1500 m, nevyskytují se cumulonimby.

METAR: EFJY 231150Z AUTO 23009KT 170V280 CAVOK 18/02 Q1025

Čas: 15:11 (12:11 UTC)

Předpověď počasí

Zpráva byla vytvořena před 38 minutami, v 11:33 UTC
Předpověď platná od 23 v 12 UTC do 24 v 12 UTC
Jihozápadní vítr 12 kt
Viditelnost 10 km a více
Žádná oblačnost pod 1500 m, nevyskytují se cumulonimby.
Pravděpodobnost 30%
od 23 v 12 UTC do 23 v 15 UTC
Západojihozápadní vítr 15 kt s nárazy do 25 kt
Změna
od 23 v 17 UTC do 23 v 19 UTC
Jihozápadní vítr 2 kt

TAF: EFJY 231133Z 2312/2412 23012KT CAVOK PROB30 2312/2315 24015G25KT BECMG 2317/2319 23002KT

Stav a předpovědi počasí z více než 4 000 letišť (zprávy METAR a TAF).

Červené a žluté tečky na mapě představují dostupné meteorologické stanice.

Když kurzor umístíte na tečku, zobrazí se název stanice.

Pak kliknutím zobrazíte stav a předpověď počasí.

Chcete-li změnit mapu, kliknutím na zelené tlačítko se znaménkem +mapu přiblížíte, kliknutím na zelené tlačítko se znaménkem – mapu oddálíte a kliknutím na zelené šipky přejdete na sousední mapy.


METAR-TAF: